Time;durP1;ratioP1;P1;durP2;ratioP2;P2;SDS_P1;SDS_P2;PMS_P1;PMS_P2;Temp;Humidity;BMP_temperature;BMP_pressure;BME280_temperature;BME280_humidity;BME280_pressure;Samples;Min_cycle;Max_cycle;Signal;HPM_P1;HPM_P2
2021/10/24 00:04:11;;;;;;;25.90;16.42;;;;;;;5.52;100.00;102686.06;10630397;27;20043;-58
2021/10/24 00:09:13;;;;;;;25.15;14.52;;;;;;;5.61;100.00;102677.34;10630334;27;20047;-56
2021/10/24 00:14:15;;;;;;;30.30;16.33;;;;;;;5.51;100.00;102676.53;10629929;27;20051;-58
2021/10/24 00:19:18;;;;;;;18.98;13.43;;;;;;;5.57;100.00;102677.34;10629728;27;20067;-58
2021/10/24 00:24:20;;;;;;;23.13;14.82;;;;;;;5.68;100.00;102677.31;10629949;27;20047;-57
2021/10/24 00:29:22;;;;;;;22.80;13.70;;;;;;;5.86;100.00;102678.03;10629431;27;20043;-57
2021/10/24 00:34:25;;;;;;;20.45;14.10;;;;;;;5.76;100.00;102674.63;10629010;27;20047;-57
2021/10/24 00:39:27;;;;;;;24.63;14.18;;;;;;;5.92;100.00;102678.84;10628979;27;20048;-56
2021/10/24 00:44:32;;;;;;;25.85;15.13;;;;;;;5.69;100.00;102673.81;10629370;27;20147;-56
2021/10/24 00:49:35;;;;;;;28.48;12.35;;;;;;;5.92;100.00;102665.84;10628876;27;20057;-56
2021/10/24 00:54:39;;;;;;;26.95;14.40;;;;;;;5.90;100.00;102662.41;10628633;27;20055;-56
2021/10/24 00:59:42;;;;;;;26.55;13.80;;;;;;;5.84;100.00;102664.19;10609739;27;20509;-56
2021/10/24 01:04:44;;;;;;;18.20;13.35;;;;;;;5.87;100.00;102658.97;10628062;27;20055;-56
2021/10/24 01:09:47;;;;;;;17.85;13.45;;;;;;;5.79;100.00;102655.56;10627534;27;20058;-57
2021/10/24 01:14:49;;;;;;;26.25;13.43;;;;;;;5.78;100.00;102649.47;10627511;27;20054;-57
2021/10/24 01:19:51;;;;;;;21.38;13.18;;;;;;;5.88;100.00;102655.47;10627118;27;20375;-56
2021/10/24 01:24:54;;;;;;;22.02;14.02;;;;;;;5.72;100.00;102649.53;10627028;27;20417;-57
2021/10/24 01:29:59;;;;;;;23.17;14.25;;;;;;;5.72;100.00;102634.81;10627704;27;20053;-56
2021/10/24 01:35:02;;;;;;;19.02;14.15;;;;;;;5.62;100.00;102635.75;10626922;27;20066;-58
2021/10/24 01:40:07;;;;;;;24.65;14.15;;;;;;;5.73;100.00;102633.06;10626618;27;20125;-56
2021/10/24 01:45:10;;;;;;;21.67;14.00;;;;;;;5.70;100.00;102626.16;10626938;27;20047;-59
2021/10/24 01:50:12;;;;;;;22.85;15.02;;;;;;;5.57;100.00;102633.19;10625899;27;20043;-57
2021/10/24 01:55:16;;;;;;;21.10;14.27;;;;;;;5.65;100.00;102624.44;10625902;27;20047;-54
2021/10/24 02:00:20;;;;;;;19.75;14.32;;;;;;;5.61;100.00;102612.38;10625912;27;20054;-58
2021/10/24 02:05:22;;;;;;;22.35;15.00;;;;;;;5.57;100.00;102615.00;10625962;27;20047;-60
2021/10/24 02:10:25;;;;;;;21.27;12.35;;;;;;;5.45;100.00;102612.50;10625451;27;20043;-56
2021/10/24 02:15:27;;;;;;;24.75;16.75;;;;;;;5.42;100.00;102601.25;10625043;27;20047;-55
2021/10/24 02:20:30;;;;;;;23.75;15.95;;;;;;;5.56;100.00;102602.00;10624454;27;20039;-60
2021/10/24 02:25:33;;;;;;;22.48;14.75;;;;;;;5.40;100.00;102596.94;10624863;27;20043;-57
2021/10/24 02:30:36;;;;;;;23.15;16.10;;;;;;;5.38;100.00;102588.28;10625538;27;20049;-57
2021/10/24 02:35:39;;;;;;;20.63;14.02;;;;;;;5.48;100.00;102585.59;10624607;27;20047;-54
2021/10/24 02:40:43;;;;;;;28.52;17.75;;;;;;;5.21;100.00;102578.00;10624220;27;20134;-57
2021/10/24 02:45:45;;;;;;;23.30;15.00;;;;;;;5.31;100.00;102567.53;10624872;27;20054;-57
2021/10/24 02:50:49;;;;;;;25.50;15.90;;;;;;;5.31;100.00;102562.34;10624240;28;20482;-58
2021/10/24 02:55:51;;;;;;;19.40;15.35;;;;;;;5.28;100.00;102560.66;10624077;28;20051;-57
2021/10/24 03:00:53;;;;;;;23.55;15.30;;;;;;;5.22;100.00;102563.28;10623951;28;20054;-57
2021/10/24 03:05:56;;;;;;;28.50;15.18;;;;;;;5.25;100.00;102555.47;10624221;28;20096;-58
2021/10/24 03:10:58;;;;;;;19.20;13.55;;;;;;;5.38;100.00;102549.31;10624150;28;20047;-57
2021/10/24 03:16:01;;;;;;;24.17;14.48;;;;;;;5.04;100.00;102551.28;10623746;28;20483;-57
2021/10/24 03:21:03;;;;;;;21.05;13.82;;;;;;;5.18;100.00;102552.06;10623591;28;20173;-57
2021/10/24 03:26:05;;;;;;;18.77;12.57;;;;;;;5.28;100.00;102541.59;10623653;28;20406;-56
2021/10/24 03:31:08;;;;;;;18.52;12.82;;;;;;;5.17;100.00;102547.72;10623414;27;20047;-56
2021/10/24 03:36:10;;;;;;;18.08;12.88;;;;;;;5.20;100.00;102552.06;10630579;27;20047;-56
2021/10/24 03:41:13;;;;;;;19.08;13.82;;;;;;;5.25;100.00;102549.44;10631222;27;20047;-55
2021/10/24 03:46:16;;;;;;;16.02;12.13;;;;;;;5.21;100.00;102546.84;10631124;27;20505;-57
2021/10/24 03:51:18;;;;;;;23.45;13.05;;;;;;;5.21;100.00;102545.97;10630927;27;20047;-57
2021/10/24 03:56:20;;;;;;;19.50;12.40;;;;;;;5.10;100.00;102542.59;10631307;27;20044;-59
2021/10/24 04:01:23;;;;;;;23.00;14.38;;;;;;;5.19;100.00;102545.13;10630454;27;20039;-58
2021/10/24 04:06:25;;;;;;;23.20;13.00;;;;;;;5.14;100.00;102549.50;10630474;27;20050;-55
2021/10/24 04:11:27;;;;;;;18.38;11.45;;;;;;;5.16;100.00;102542.53;10630240;27;20050;-58
2021/10/24 04:16:30;;;;;;;19.05;12.90;;;;;;;5.15;100.00;102539.09;10629636;27;20043;-58
2021/10/24 04:21:32;;;;;;;14.05;11.50;;;;;;;5.21;100.00;102545.97;10629461;27;20043;-59
2021/10/24 04:26:34;;;;;;;17.65;12.15;;;;;;;5.07;100.00;102540.03;10629765;27;20043;-58
2021/10/24 04:31:37;;;;;;;21.88;12.70;;;;;;;5.06;100.00;102536.56;10611678;27;20051;-58
2021/10/24 04:36:39;;;;;;;16.55;12.13;;;;;;;5.10;100.00;102530.47;10629145;27;20047;-55
2021/10/24 04:41:41;;;;;;;20.98;12.45;;;;;;;5.09;100.00;102533.94;10629221;27;20058;-57
2021/10/24 04:46:44;;;;;;;16.08;11.32;;;;;;;5.03;100.00;102528.81;10610708;27;20047;-56
2021/10/24 04:51:46;;;;;;;20.13;11.80;;;;;;;5.14;100.00;102521.78;10628659;27;20047;-56
2021/10/24 04:56:49;;;;;;;19.92;10.85;;;;;;;4.98;100.00;102522.78;10628178;27;20054;-55
2021/10/24 05:01:51;;;;;;;21.55;12.00;;;;;;;5.03;100.00;102521.00;10628064;27;20047;-58
2021/10/24 05:06:54;;;;;;;23.73;10.55;;;;;;;5.05;100.00;102521.84;10627840;27;20051;-58
2021/10/24 05:11:56;;;;;;;16.38;11.15;;;;;;;4.97;100.00;102502.88;10627657;27;20053;-57
2021/10/24 05:16:59;;;;;;;16.77;10.68;;;;;;;4.94;100.00;102501.19;10627675;27;20055;-58
2021/10/24 05:22:02;;;;;;;17.85;10.00;;;;;;;5.02;100.00;102499.34;10627365;27;20039;-56
2021/10/24 05:27:04;;;;;;;20.67;11.48;;;;;;;4.93;100.00;102496.84;10627197;27;20051;-59
2021/10/24 05:32:06;;;;;;;16.80;10.82;;;;;;;4.82;100.00;102494.31;10627048;27;20044;-58
2021/10/24 05:37:09;;;;;;;12.00;9.82;;;;;;;4.94;100.00;102489.91;10626848;27;20050;-58
2021/10/24 05:42:12;;;;;;;14.82;10.95;;;;;;;4.91;100.00;102485.63;10626297;27;20063;-55
2021/10/24 05:47:14;;;;;;;15.70;10.80;;;;;;;4.78;100.00;102483.97;10626771;27;20053;-56
2021/10/24 05:52:17;;;;;;;28.35;11.95;;;;;;;4.82;100.00;102486.53;10626150;27;20047;-57
2021/10/24 05:57:20;;;;;;;14.52;10.93;;;;;;;4.73;100.00;102481.41;10625411;27;20050;-55
2021/10/24 06:02:22;;;;;;;20.55;10.98;;;;;;;4.72;100.00;102478.81;10625599;27;20081;-57
2021/10/24 06:07:26;;;;;;;17.13;11.63;;;;;;;4.72;100.00;102489.19;10626057;27;20096;-59
2021/10/24 06:17:36;;;;;;;16.52;12.00;;;;;;;4.68;100.00;102470.19;10625494;27;20047;-57
2021/10/24 06:22:40;;;;;;;21.23;12.05;;;;;;;4.64;100.00;102471.94;10625234;27;20068;-56
2021/10/24 06:27:43;;;;;;;20.65;12.48;;;;;;;4.72;100.00;102471.88;10625501;27;20058;-57
2021/10/24 06:32:45;;;;;;;17.52;12.77;;;;;;;4.68;100.00;102469.31;10624647;27;20513;-56
2021/10/24 06:37:48;;;;;;;20.80;12.75;;;;;;;4.60;100.00;102464.16;10624322;27;20130;-57
2021/10/24 06:42:51;;;;;;;23.90;14.38;;;;;;;4.59;100.00;102457.25;10624925;27;20051;-59
2021/10/24 06:47:53;;;;;;;23.80;15.05;;;;;;;4.61;100.00;102461.56;10624997;28;20062;-56
2021/10/24 06:52:55;;;;;;;29.70;16.25;;;;;;;4.55;100.00;102461.59;10624102;28;20514;-55
2021/10/24 06:57:58;;;;;;;25.15;14.60;;;;;;;4.64;100.00;102453.78;10624064;28;20402;-54
2021/10/24 07:03:00;;;;;;;25.77;14.93;;;;;;;4.89;100.00;102460.53;10623910;28;20122;-57
2021/10/24 07:08:05;;;;;;;30.35;17.17;;;;;;;4.92;100.00;102452.72;10628153;27;20081;-57
2021/10/24 07:13:10;;;;;;;25.23;17.02;;;;;;;5.05;100.00;102451.75;10632760;27;20055;-56
2021/10/24 07:18:13;;;;;;;24.90;16.33;;;;;;;5.30;100.00;102448.97;10632737;27;20047;-57
2021/10/24 07:23:15;;;;;;;28.77;17.85;;;;;;;5.38;100.00;102445.41;10632247;27;20062;-54
2021/10/24 07:28:17;;;;;;;25.40;18.98;;;;;;;5.42;100.00;102435.84;10631949;27;20054;-56
2021/10/24 07:33:19;;;;;;;26.30;17.98;;;;;;;5.58;100.00;102432.25;10632617;27;20043;-56
2021/10/24 07:38:22;;;;;;;29.98;19.85;;;;;;;6.07;100.00;102424.78;10631246;27;20457;-55
2021/10/24 07:43:25;;;;;;;23.77;17.20;;;;;;;6.31;100.00;102416.66;10631159;27;20043;-57
2021/10/24 07:48:27;;;;;;;26.50;18.15;;;;;;;6.40;100.00;102425.22;10631193;27;20055;-56
2021/10/24 07:53:30;;;;;;;21.38;17.38;;;;;;;7.21;100.00;102417.88;10630608;27;20510;-58
2021/10/24 07:58:33;;;;;;;21.65;17.73;;;;;;;7.09;100.00;102407.69;10630709;27;20053;-57
2021/10/24 08:03:35;;;;;;;24.35;17.30;;;;;;;7.97;100.00;102410.38;10630575;27;20049;-58
2021/10/24 08:08:39;;;;;;;22.67;15.90;;;;;;;8.69;100.00;102397.50;10630236;27;20532;-58
2021/10/24 08:13:41;;;;;;;15.75;13.43;;;;;;;8.69;96.24;102388.78;10630434;27;20039;-57
2021/10/24 08:18:44;;;;;;;23.27;13.10;;;;;;;9.25;94.52;102391.72;10628823;27;20401;-55
2021/10/24 08:23:47;;;;;;;16.75;12.63;;;;;;;9.90;93.47;102391.69;10629647;27;20047;-57
2021/10/24 08:28:50;;;;;;;17.63;12.52;;;;;;;9.86;91.27;102389.16;10629980;27;20047;-59
2021/10/24 08:33:53;;;;;;;16.27;12.13;;;;;;;10.66;88.45;102385.03;10629623;27;20506;-58
2021/10/24 08:38:57;;;;;;;17.58;10.73;;;;;;;11.10;87.47;102372.25;10628987;27;20070;-59
2021/10/24 08:44:01;;;;;;;14.18;10.88;;;;;;;11.36;85.38;102370.47;10629117;27;20075;-57
2021/10/24 08:49:04;;;;;;;14.93;10.52;;;;;;;11.50;81.69;102363.81;10628684;27;20415;-57
2021/10/24 08:54:08;;;;;;;12.48;10.15;;;;;;;11.23;80.90;102356.91;10628579;27;20039;-58
2021/10/24 08:59:10;;;;;;;13.90;10.30;;;;;;;11.56;79.07;102359.25;10628228;27;20046;-58
2021/10/24 09:04:13;;;;;;;16.15;10.90;;;;;;;11.97;76.96;102344.63;10628912;27;20039;-57
2021/10/24 09:09:29;;;;;;;10.02;8.77;;;;;;;12.03;71.81;102338.25;10627683;27;20051;-59
2021/10/24 09:14:41;;;;;;;16.52;9.88;;;;;;;11.59;76.19;102340.78;10627812;27;20043;-57
2021/10/24 09:19:45;;;;;;;16.73;10.30;;;;;;;12.72;70.19;102332.00;10627542;27;20384;-57
2021/10/24 09:25:00;;;;;;;11.70;9.48;;;;;;;14.07;75.71;102319.84;10609465;27;20050;-57
2021/10/24 09:30:26;;;;;;;11.82;8.70;;;;;;;14.73;64.83;102321.06;10626878;27;20049;-58
2021/10/24 09:35:32;;;;;;;10.52;7.60;;;;;;;15.50;64.29;102320.53;10614845;27;20047;-59
2021/10/24 09:40:42;;;;;;;9.70;8.57;;;;;;;16.76;60.82;102320.50;10626763;27;20051;-58
2021/10/24 09:45:51;;;;;;;16.52;8.65;;;;;;;15.32;62.16;102316.25;10626490;27;20398;-59
2021/10/24 09:50:55;;;;;;;13.05;7.75;;;;;;;16.48;61.79;102302.78;10626594;27;20478;-61
2021/10/24 09:55:59;;;;;;;8.88;6.97;;;;;;;16.51;57.94;102300.78;10625940;27;20047;-59
2021/10/24 10:01:07;;;;;;;17.90;8.60;;;;;;;14.53;58.66;102304.44;10626061;27;20059;-58
2021/10/24 10:06:10;;;;;;;10.88;8.45;;;;;;;17.22;55.16;102301.88;10625704;27;20108;-58
2021/10/24 10:11:12;;;;;;;9.38;7.38;;;;;;;16.78;57.59;102293.94;10625287;27;20515;-58
2021/10/24 10:16:18;;;;;;;9.00;8.07;;;;;;;15.59;59.48;102296.25;10625546;27;20051;-60
2021/10/24 10:21:32;;;;;;;14.18;8.95;;;;;;;15.87;57.59;102296.53;10625036;27;20054;-60
2021/10/24 10:26:40;;;;;;;7.45;6.65;;;;;;;16.44;56.71;102283.59;10625329;27;20051;-58
2021/10/24 10:32:12;;;;;;;12.18;8.32;;;;;;;16.51;56.99;102276.16;10624522;27;20505;-59
2021/10/24 10:37:49;;;;;;;10.40;6.80;;;;;;;15.89;58.37;102278.84;10624634;27;20043;-60
2021/10/24 10:43:01;;;;;;;7.75;6.45;;;;;;;16.81;53.75;102269.97;10624125;27;20043;-60
2021/10/24 10:48:40;;;;;;;9.48;7.05;;;;;;;15.75;56.38;102272.56;10624483;28;20044;-60
2021/10/24 10:53:49;;;;;;;8.80;6.53;;;;;;;15.89;54.43;102270.94;10624006;28;20043;-59
2021/10/24 10:58:56;;;;;;;10.95;6.60;;;;;;;16.43;54.57;102262.53;10624078;28;20051;-60
2021/10/24 11:04:06;;;;;;;8.63;5.82;;;;;;;15.57;58.86;102270.91;10605880;28;20407;-61
2021/10/24 11:09:11;;;;;;;9.45;5.90;;;;;;;17.17;52.73;102261.59;10624551;28;20055;-60
2021/10/24 11:14:16;;;;;;;8.63;4.97;;;;;;;17.01;53.96;102260.84;10624301;28;20403;-58
2021/10/24 11:19:36;;;;;;;8.80;6.65;;;;;;;16.87;53.37;102262.53;10623403;28;20047;-56
2021/10/24 11:24:46;;;;;;;8.57;6.32;;;;;;;16.58;58.09;102258.13;10624060;28;20371;-57
2021/10/24 11:30:00;;;;;;;6.80;5.35;;;;;;;17.61;55.11;102267.69;10623649;28;20054;-56
2021/10/24 11:35:16;;;;;;;8.32;6.63;;;;;;;16.71;57.73;102246.72;10623743;28;20047;-54
2021/10/24 11:40:23;;;;;;;12.13;6.65;;;;;;;15.08;58.86;102233.97;10623977;28;20051;-58
2021/10/24 11:45:27;;;;;;;8.65;6.10;;;;;;;16.48;61.37;102234.03;10623826;28;20043;-57
2021/10/24 11:50:46;;;;;;;7.45;5.90;;;;;;;15.56;58.89;102235.72;10623273;28;20054;-58
2021/10/24 11:55:53;;;;;;;7.10;6.40;;;;;;;15.21;57.48;102221.81;10628084;27;20050;-57
2021/10/24 12:01:25;;;;;;;9.02;6.65;;;;;;;15.62;60.16;102216.06;10630349;27;20394;-58
2021/10/24 12:06:57;;;;;;;7.82;6.35;;;;;;;15.87;58.63;102204.97;10610137;27;20622;-56
2021/10/24 12:12:23;;;;;;;9.10;5.82;;;;;;;15.15;62.13;102214.25;10629909;27;20048;-57
2021/10/24 12:17:27;;;;;;;8.68;5.68;;;;;;;15.35;59.78;102207.88;10611852;27;20535;-55
2021/10/24 12:22:52;;;;;;;8.70;6.50;;;;;;;14.52;61.38;102205.19;10630112;27;20466;-57
2021/10/24 12:28:10;;;;;;;6.93;5.07;;;;;;;15.53;63.22;102196.31;10629656;27;20058;-59
2021/10/24 12:33:16;;;;;;;8.38;5.75;;;;;;;13.96;65.38;102195.75;10629460;27;20043;-56
2021/10/24 12:38:19;;;;;;;8.50;6.07;;;;;;;13.54;65.29;102193.34;10628964;27;20097;-58
2021/10/24 12:43:25;;;;;;;10.00;6.35;;;;;;;14.05;62.98;102190.03;10629093;27;20065;-57
2021/10/24 12:48:45;;;;;;;9.07;7.07;;;;;;;15.20;58.80;102184.03;10628771;27;20050;-59
2021/10/24 12:53:47;;;;;;;8.95;6.13;;;;;;;18.27;47.31;102172.41;10628667;27;20116;-57
2021/10/24 12:58:51;;;;;;;7.25;6.50;;;;;;;13.64;60.45;102162.19;10628349;27;20046;-58
2021/10/24 13:03:54;;;;;;;8.30;7.25;;;;;;;13.12;64.29;102156.75;10628167;27;20066;-58
2021/10/24 13:08:57;;;;;;;10.80;7.32;;;;;;;13.30;65.80;102157.66;10627884;27;20441;-57
2021/10/24 13:14:00;;;;;;;10.65;6.50;;;;;;;12.22;72.86;102149.31;10627776;27;20043;-58
2021/10/24 13:19:03;;;;;;;14.30;7.25;;;;;;;13.31;68.99;102141.78;10627312;27;20126;-56
2021/10/24 13:24:18;;;;;;;11.95;7.22;;;;;;;11.98;75.17;102135.47;10627285;27;20065;-54
2021/10/24 13:29:21;;;;;;;10.27;7.20;;;;;;;12.78;69.83;102121.50;10626785;27;20047;-56
2021/10/24 13:34:23;;;;;;;10.23;6.78;;;;;;;12.77;69.08;102112.75;10627033;27;20043;-56
2021/10/24 13:39:25;;;;;;;9.75;7.18;;;;;;;12.49;70.45;102104.41;10626847;27;20066;-57
2021/10/24 13:44:28;;;;;;;11.23;6.97;;;;;;;12.90;69.63;102093.78;10626775;27;20039;-58
2021/10/24 13:49:30;;;;;;;14.18;7.53;;;;;;;11.97;74.53;102089.13;10626402;27;20055;-56
2021/10/24 13:54:33;;;;;;;7.47;6.43;;;;;;;12.01;73.65;102080.22;10626200;27;20047;-56
2021/10/24 13:59:37;;;;;;;7.40;5.82;;;;;;;12.64;66.79;102078.31;10625869;27;20043;-57
2021/10/24 14:04:44;;;;;;;6.28;5.47;;;;;;;11.84;71.84;102071.28;10625661;27;20082;-59
2021/10/24 14:09:50;;;;;;;7.15;5.70;;;;;;;11.64;76.18;102068.63;10625669;27;20059;-58
2021/10/24 14:14:52;;;;;;;11.20;6.80;;;;;;;11.83;72.41;102061.69;10625309;27;20398;-57
2021/10/24 14:19:54;;;;;;;7.07;5.63;;;;;;;11.18;83.32;102060.88;10624393;27;20406;-54
2021/10/24 14:24:57;;;;;;;9.85;6.00;;;;;;;11.50;75.79;102049.09;10624912;27;20073;-56
2021/10/24 14:30:04;;;;;;;8.98;5.90;;;;;;;11.42;78.40;102038.06;10625103;27;20050;-56
2021/10/24 14:35:07;;;;;;;7.32;5.80;;;;;;;12.09;72.25;102041.38;10624882;27;20047;-58
2021/10/24 14:40:09;;;;;;;9.25;5.38;;;;;;;11.26;78.52;102036.97;10624313;27;20058;-54
2021/10/24 14:45:12;;;;;;;9.40;5.95;;;;;;;11.15;77.68;102029.53;10624651;27;20051;-56
2021/10/24 14:50:15;;;;;;;8.30;5.88;;;;;;;11.27;77.07;102012.47;10624946;27;20051;-59
2021/10/24 14:55:18;;;;;;;10.90;5.80;;;;;;;11.29;74.99;102013.25;10624284;28;20043;-57
2021/10/24 15:00:20;;;;;;;7.68;5.50;;;;;;;10.99;81.33;102013.56;10623783;28;20483;-57
2021/10/24 15:05:27;;;;;;;9.15;5.63;;;;;;;10.59;85.73;102015.97;10624083;28;20043;-57
2021/10/24 15:10:29;;;;;;;5.38;4.82;;;;;;;10.59;86.85;102017.72;10623781;28;20051;-59
2021/10/24 15:15:49;;;;;;;6.72;4.65;;;;;;;9.76;93.77;102012.84;10606243;28;20050;-57
2021/10/24 15:21:10;;;;;;;10.05;4.75;;;;;;;9.56;98.29;101998.69;10623726;28;20512;-56
2021/10/24 15:26:17;;;;;;;8.82;6.55;;;;;;;9.45;100.00;101998.22;10624033;28;20122;-56
2021/10/24 15:31:29;;;;;;;5.90;4.88;;;;;;;9.42;100.00;101995.69;10631227;27;20051;-57
2021/10/24 15:36:32;;;;;;;7.32;5.28;;;;;;;9.06;100.00;101989.03;10631597;27;20051;-56
2021/10/24 15:41:35;;;;;;;10.45;5.78;;;;;;;8.82;100.00;101976.72;10631757;27;20051;-57
2021/10/24 15:46:41;;;;;;;7.85;4.95;;;;;;;8.69;100.00;101984.06;10631279;27;20520;-57
2021/10/24 15:51:45;;;;;;;8.07;5.53;;;;;;;8.72;100.00;101977.03;10631014;27;20047;-56
2021/10/24 15:56:49;;;;;;;5.80;5.22;;;;;;;8.49;100.00;101961.16;10631191;27;20055;-56
2021/10/24 16:01:51;;;;;;;7.45;5.78;;;;;;;9.10;100.00;101953.19;10630727;27;20043;-56
2021/10/24 16:06:54;;;;;;;10.43;6.93;;;;;;;8.87;100.00;101959.16;10630667;27;20047;-54
2021/10/24 16:11:56;;;;;;;10.57;6.82;;;;;;;8.56;100.00;101960.09;10630080;27;20046;-56
2021/10/24 16:16:59;;;;;;;8.55;6.60;;;;;;;8.13;100.00;101956.13;10630230;27;20070;-58
2021/10/24 16:22:01;;;;;;;8.20;6.53;;;;;;;7.84;100.00;101957.78;10629794;27;20043;-54
2021/10/24 16:27:03;;;;;;;10.57;6.80;;;;;;;7.72;100.00;101965.94;10630072;27;20043;-56
2021/10/24 16:32:06;;;;;;;14.20;8.02;;;;;;;8.24;100.00;101954.06;10629398;27;20050;-54
2021/10/24 16:37:08;;;;;;;11.35;6.78;;;;;;;7.97;100.00;101948.72;10629535;27;20050;-57
2021/10/24 16:42:11;;;;;;;9.95;7.70;;;;;;;8.28;100.00;101932.19;10628046;27;20047;-58
2021/10/24 16:47:13;;;;;;;12.38;8.70;;;;;;;7.61;100.00;101935.78;10629041;27;20059;-51
2021/10/24 16:52:15;;;;;;;13.00;8.63;;;;;;;7.71;100.00;101919.91;10628680;27;20047;-56
2021/10/24 16:57:18;;;;;;;16.10;7.55;;;;;;;7.71;100.00;101922.50;10628351;27;20410;-58
2021/10/24 17:02:20;;;;;;;9.48;7.32;;;;;;;7.40;100.00;101933.78;10628420;27;20049;-54
2021/10/24 17:07:23;;;;;;;8.60;7.07;;;;;;;7.17;100.00;101934.34;10628186;27;20094;-57
2021/10/24 17:12:25;;;;;;;14.32;8.70;;;;;;;7.37;100.00;101932.09;10627581;27;20047;-55
2021/10/24 17:17:28;;;;;;;8.82;7.45;;;;;;;7.09;100.00;101931.06;10609847;27;20047;-56
2021/10/24 17:22:31;;;;;;;11.88;8.25;;;;;;;7.07;100.00;101924.13;10627299;27;20051;-57
2021/10/24 17:27:33;;;;;;;12.07;7.55;;;;;;;6.76;100.00;101930.97;10627453;27;20047;-55
2021/10/24 17:32:35;;;;;;;12.75;8.25;;;;;;;6.57;100.00;101935.75;10627181;27;20043;-56
2021/10/24 17:37:38;;;;;;;17.00;9.85;;;;;;;6.34;100.00;101934.53;10627144;27;20047;-56
2021/10/24 17:42:40;;;;;;;11.35;8.35;;;;;;;6.21;100.00;101927.88;10626214;27;20047;-55
2021/10/24 17:47:42;;;;;;;13.90;8.63;;;;;;;6.32;100.00;101925.88;10626744;27;20059;-58
2021/10/24 17:52:46;;;;;;;12.38;8.23;;;;;;;6.21;100.00;101928.72;10625266;27;20055;-56
2021/10/24 17:57:48;;;;;;;12.55;8.27;;;;;;;6.31;100.00;101939.78;10626491;27;20062;-52
2021/10/24 18:02:51;;;;;;;15.02;9.30;;;;;;;6.20;100.00;101927.00;10626457;27;20050;-55
2021/10/24 18:07:54;;;;;;;13.40;9.85;;;;;;;6.31;100.00;101913.78;10625217;27;20498;-57
2021/10/24 18:12:57;;;;;;;18.58;11.05;;;;;;;6.29;100.00;101918.16;10625249;27;20500;-57
2021/10/24 18:17:59;;;;;;;14.82;9.30;;;;;;;6.52;100.00;101915.03;10625305;27;20054;-55
2021/10/24 18:23:01;;;;;;;15.68;9.90;;;;;;;6.62;100.00;101905.28;10607178;27;20047;-54
2021/10/24 18:28:04;;;;;;;15.40;10.45;;;;;;;7.03;100.00;101893.03;10606969;27;20046;-57
2021/10/24 18:33:07;;;;;;;17.75;11.18;;;;;;;6.79;100.00;101887.53;10624708;27;20043;-55
2021/10/24 18:38:11;;;;;;;16.58;11.93;;;;;;;6.70;100.00;101880.78;10624540;27;20043;-55
2021/10/24 18:43:13;;;;;;;16.92;12.23;;;;;;;6.69;100.00;101884.28;10624440;27;20502;-54
2021/10/24 18:48:15;;;;;;;24.30;12.43;;;;;;;6.58;100.00;101885.44;10624622;27;20078;-52
2021/10/24 18:53:18;;;;;;;16.38;11.07;;;;;;;6.62;100.00;101882.72;10624451;28;20055;-55
2021/10/24 18:58:22;;;;;;;15.40;11.15;;;;;;;6.47;100.00;101876.13;10624264;28;20043;-58
2021/10/24 19:03:25;;;;;;;22.90;12.00;;;;;;;6.70;100.00;101869.53;10627343;27;20061;-55
2021/10/24 19:08:29;;;;;;;20.40;10.80;;;;;;;6.61;100.00;101868.00;10632744;27;20058;-55
2021/10/24 19:13:33;;;;;;;16.45;11.77;;;;;;;6.69;100.00;101865.19;10632787;27;20047;-53
2021/10/24 19:18:37;;;;;;;21.15;13.05;;;;;;;6.57;100.00;101863.75;10632508;27;20050;-55
2021/10/24 19:23:40;;;;;;;16.75;12.27;;;;;;;6.68;100.00;101866.09;10632637;27;20055;-58
2021/10/24 19:28:42;;;;;;;16.80;11.90;;;;;;;6.64;100.00;101867.06;10613908;27;20054;-50
2021/10/24 19:33:44;;;;;;;19.50;12.57;;;;;;;6.92;100.00;101863.78;10631849;27;20483;-56
2021/10/24 19:38:47;;;;;;;18.92;10.90;;;;;;;7.22;100.00;101869.97;10631640;27;20134;-53
2021/10/24 19:43:49;;;;;;;19.45;11.70;;;;;;;7.05;100.00;101868.66;10631351;27;20418;-54
2021/10/24 19:48:52;;;;;;;19.38;11.82;;;;;;;7.36;100.00;101864.38;10631350;27;20050;-56
2021/10/24 19:53:56;;;;;;;14.27;11.75;;;;;;;6.85;100.00;101866.53;10631274;27;20043;-53
2021/10/24 19:58:58;;;;;;;23.40;12.82;;;;;;;7.09;100.00;101869.41;10631381;27;20043;-53
2021/10/24 20:04:04;;;;;;;20.40;11.95;;;;;;;6.88;100.00;101863.88;10630834;27;20047;-58
2021/10/24 20:09:07;;;;;;;24.15;12.85;;;;;;;6.91;100.00;101868.16;10630399;27;20566;-52
2021/10/24 20:14:09;;;;;;;16.70;11.10;;;;;;;6.97;100.00;101867.13;10629385;27;20050;-58
2021/10/24 20:19:12;;;;;;;21.35;14.13;;;;;;;7.23;100.00;101869.09;10629751;27;20044;-54
2021/10/24 20:24:14;;;;;;;17.42;13.05;;;;;;;6.99;100.00;101871.44;10630075;27;20047;-56
2021/10/24 20:29:17;;;;;;;27.88;15.10;;;;;;;6.75;100.00;101869.41;10629750;27;20054;-55
2021/10/24 20:34:19;;;;;;;16.75;12.15;;;;;;;6.99;100.00;101868.81;10630046;27;20058;-55
2021/10/24 20:39:22;;;;;;;22.40;13.45;;;;;;;6.63;100.00;101868.81;10629201;27;20405;-52
2021/10/24 20:44:24;;;;;;;19.77;11.93;;;;;;;6.51;100.00;101869.94;10629856;27;20050;-57
2021/10/24 20:49:27;;;;;;;21.38;13.43;;;;;;;6.44;100.00;101884.00;10628893;27;20054;-57
2021/10/24 20:54:29;;;;;;;16.92;13.18;;;;;;;6.45;100.00;101893.50;10629057;27;20122;-57
2021/10/24 20:59:31;;;;;;;24.70;12.88;;;;;;;6.52;100.00;101889.00;10628681;27;20071;-57
2021/10/24 21:04:34;;;;;;;17.52;12.07;;;;;;;6.56;100.00;101887.22;10628507;27;20047;-53
2021/10/24 21:09:36;;;;;;;13.75;11.00;;;;;;;6.56;100.00;101893.28;10628008;27;20097;-53
2021/10/24 21:14:39;;;;;;;16.98;12.13;;;;;;;6.33;100.00;101899.84;10628210;27;20043;-55
2021/10/24 21:19:41;;;;;;;22.92;14.02;;;;;;;6.39;100.00;101896.25;10628178;27;20042;-57
2021/10/24 21:24:44;;;;;;;16.58;12.65;;;;;;;6.26;100.00;101898.25;10609338;27;20043;-55
2021/10/24 21:29:46;;;;;;;19.65;14.43;;;;;;;6.24;100.00;101896.59;10627238;27;20050;-50
2021/10/24 21:34:48;;;;;;;22.27;12.90;;;;;;;6.22;100.00;101899.22;10627567;27;20049;-57
2021/10/24 21:39:51;;;;;;;18.77;15.38;;;;;;;6.19;100.00;101899.28;10626640;27;20061;-53
2021/10/24 21:44:54;;;;;;;18.60;13.70;;;;;;;6.04;100.00;101897.88;10627108;27;20104;-58
2021/10/24 21:49:56;;;;;;;18.15;12.57;;;;;;;6.20;100.00;101893.19;10626266;27;20051;-57
2021/10/24 21:55:04;;;;;;;19.00;12.95;;;;;;;6.32;100.00;101903.34;10626681;27;20046;-57
2021/10/24 22:00:12;;;;;;;18.25;12.60;;;;;;;6.41;100.00;101889.28;10626169;27;20050;-55
2021/10/24 22:05:15;;;;;;;19.45;13.05;;;;;;;6.41;100.00;101893.63;10625786;27;20039;-56
2021/10/24 22:10:17;;;;;;;25.45;14.40;;;;;;;6.40;100.00;101886.69;10625549;27;20395;-57
2021/10/24 22:15:20;;;;;;;20.48;13.57;;;;;;;6.11;100.00;101877.78;10607351;27;20043;-57
2021/10/24 22:20:23;;;;;;;23.92;12.38;;;;;;;6.50;100.00;101880.41;10625000;27;20055;-57
2021/10/24 22:25:26;;;;;;;17.85;12.23;;;;;;;6.32;100.00;101886.84;10625416;27;20047;-56
2021/10/24 22:30:28;;;;;;;21.23;14.85;;;;;;;6.16;100.00;101880.31;10624715;27;20054;-55
2021/10/24 22:35:30;;;;;;;16.80;12.40;;;;;;;5.91;100.00;101868.63;10625142;27;20050;-54
2021/10/24 22:40:33;;;;;;;15.23;12.00;;;;;;;6.05;100.00;101871.00;10606333;27;20055;-56
2021/10/24 22:45:35;;;;;;;18.77;12.80;;;;;;;5.98;100.00;101864.19;10624766;27;20043;-57
2021/10/24 22:50:37;;;;;;;19.48;12.45;;;;;;;6.07;100.00;101869.22;10624655;27;20128;-50
2021/10/24 22:55:40;;;;;;;12.82;11.18;;;;;;;6.04;100.00;101864.06;10624299;28;20513;-53
2021/10/24 23:00:42;;;;;;;22.30;14.77;;;;;;;5.84;100.00;101869.66;10624329;28;20046;-55
2021/10/24 23:05:45;;;;;;;19.45;14.43;;;;;;;5.87;100.00;101871.34;10624862;28;20039;-57